sensor_id;sensor_type;location;lat;lon;timestamp;pressure;altitude;pressure_sealevel;temperature;humidity
34197;BME280;36594;45.192;5.722;2023-04-23T00:01:37;98853.84;;;24.62;35.82
34197;BME280;36594;45.192;5.722;2023-04-23T00:04:27;98865.94;;;24.61;35.86
34197;BME280;36594;45.192;5.722;2023-04-23T00:07:20;98868.68;;;24.61;35.92
34197;BME280;36594;45.192;5.722;2023-04-23T00:10:09;98870.08;;;24.64;35.85
34197;BME280;36594;45.192;5.722;2023-04-23T00:12:58;98863.75;;;24.63;35.87
34197;BME280;36594;45.192;5.722;2023-04-23T00:15:47;98867.62;;;24.67;35.83
34197;BME280;36594;45.192;5.722;2023-04-23T00:18:35;98869.51;;;24.64;35.83
34197;BME280;36594;45.192;5.722;2023-04-23T00:21:24;98864.02;;;24.64;35.86
34197;BME280;36594;45.192;5.722;2023-04-23T00:24:14;98862.94;;;24.65;35.85
34197;BME280;36594;45.192;5.722;2023-04-23T00:27:02;98870.88;;;24.64;35.91
34197;BME280;36594;45.192;5.722;2023-04-23T00:29:50;98872.80;;;24.61;35.90
34197;BME280;36594;45.192;5.722;2023-04-23T00:32:38;98861.81;;;24.61;35.96
34197;BME280;36594;45.192;5.722;2023-04-23T00:35:28;98860.69;;;24.60;35.99
34197;BME280;36594;45.192;5.722;2023-04-23T00:38:16;98851.08;;;24.60;35.96
34197;BME280;36594;45.192;5.722;2023-04-23T00:41:07;98846.97;;;24.57;35.99
34197;BME280;36594;45.192;5.722;2023-04-23T00:43:56;98847.53;;;24.59;35.96
34197;BME280;36594;45.192;5.722;2023-04-23T00:46:46;98851.08;;;24.60;35.97
34197;BME280;36594;45.192;5.722;2023-04-23T00:49:35;98845.59;;;24.57;35.98
34197;BME280;36594;45.192;5.722;2023-04-23T00:52:25;98841.20;;;24.59;35.96
34197;BME280;36594;45.192;5.722;2023-04-23T00:55:16;98841.73;;;24.58;35.96
34197;BME280;36594;45.192;5.722;2023-04-23T00:58:06;98840.66;;;24.59;35.96
34197;BME280;36594;45.192;5.722;2023-04-23T01:00:55;98838.73;;;24.57;35.99
34197;BME280;36594;45.192;5.722;2023-04-23T01:03:43;98843.41;;;24.59;35.97
34197;BME280;36594;45.192;5.722;2023-04-23T01:06:32;98830.75;;;24.58;35.97
34197;BME280;36594;45.192;5.722;2023-04-23T01:09:21;98824.70;;;24.56;36.02
34197;BME280;36594;45.192;5.722;2023-04-23T01:12:11;98825.00;;;24.57;35.99
34197;BME280;36594;45.192;5.722;2023-04-23T01:15:01;98825.23;;;24.56;36.05
34197;BME280;36594;45.192;5.722;2023-04-23T01:17:50;98820.58;;;24.56;36.04
34197;BME280;36594;45.192;5.722;2023-04-23T01:20:39;98811.80;;;24.57;36.00
34197;BME280;36594;45.192;5.722;2023-04-23T01:23:29;98804.64;;;24.56;35.99
34197;BME280;36594;45.192;5.722;2023-04-23T01:26:18;98788.17;;;24.56;36.05
34197;BME280;36594;45.192;5.722;2023-04-23T01:29:06;98785.42;;;24.56;36.00
34197;BME280;36594;45.192;5.722;2023-04-23T01:31:56;98780.47;;;24.55;36.01
34197;BME280;36594;45.192;5.722;2023-04-23T01:34:47;98787.09;;;24.57;36.03
34197;BME280;36594;45.192;5.722;2023-04-23T01:37:37;98792.83;;;24.55;36.03
34197;BME280;36594;45.192;5.722;2023-04-23T01:40:25;98787.08;;;24.54;36.08
34197;BME280;36594;45.192;5.722;2023-04-23T01:43:14;98779.36;;;24.51;36.11
34197;BME280;36594;45.192;5.722;2023-04-23T01:46:03;98788.97;;;24.51;36.11
34197;BME280;36594;45.192;5.722;2023-04-23T01:48:51;98779.08;;;24.53;36.12
34197;BME280;36594;45.192;5.722;2023-04-23T01:51:41;98774.42;;;24.53;36.12
34197;BME280;36594;45.192;5.722;2023-04-23T01:54:31;98775.23;;;24.51;36.17
34197;BME280;36594;45.192;5.722;2023-04-23T01:57:19;98781.84;;;24.55;36.11
34197;BME280;36594;45.192;5.722;2023-04-23T02:00:13;98766.72;;;24.53;36.11
34197;BME280;36594;45.192;5.722;2023-04-23T02:03:01;98766.45;;;24.52;36.12
34197;BME280;36594;45.192;5.722;2023-04-23T02:05:50;98771.67;;;24.53;36.15
34197;BME280;36594;45.192;5.722;2023-04-23T02:08:41;98765.92;;;24.52;36.14
34197;BME280;36594;45.192;5.722;2023-04-23T02:11:30;98765.35;;;24.53;36.12
34197;BME280;36594;45.192;5.722;2023-04-23T02:14:18;98767.85;;;24.54;36.10
34197;BME280;36594;45.192;5.722;2023-04-23T02:17:07;98770.04;;;24.52;36.11
34197;BME280;36594;45.192;5.722;2023-04-23T02:19:55;98772.78;;;24.52;36.16
34197;BME280;36594;45.192;5.722;2023-04-23T02:22:45;98769.48;;;24.50;36.15
34197;BME280;36594;45.192;5.722;2023-04-23T02:25:34;98763.42;;;24.51;36.14
34197;BME280;36594;45.192;5.722;2023-04-23T02:28:25;98759.30;;;24.51;36.11
34197;BME280;36594;45.192;5.722;2023-04-23T02:31:13;98757.11;;;24.53;36.15
34197;BME280;36594;45.192;5.722;2023-04-23T02:34:02;98742.58;;;24.52;36.10
34197;BME280;36594;45.192;5.722;2023-04-23T02:36:52;98743.95;;;24.52;36.09
34197;BME280;36594;45.192;5.722;2023-04-23T02:39:41;98745.03;;;24.51;36.08
34197;BME280;36594;45.192;5.722;2023-04-23T02:42:30;98754.11;;;24.52;36.12
34197;BME280;36594;45.192;5.722;2023-04-23T02:45:19;98754.64;;;24.51;36.09
34197;BME280;36594;45.192;5.722;2023-04-23T02:48:09;98752.44;;;24.51;36.10
34197;BME280;36594;45.192;5.722;2023-04-23T02:50:57;98754.64;;;24.51;36.08
34197;BME280;36594;45.192;5.722;2023-04-23T02:53:46;98760.70;;;24.53;36.08
34197;BME280;36594;45.192;5.722;2023-04-23T02:56:34;98751.64;;;24.55;36.00
34197;BME280;36594;45.192;5.722;2023-04-23T02:59:23;98760.43;;;24.52;36.05
34197;BME280;36594;45.192;5.722;2023-04-23T03:02:11;98746.70;;;24.52;36.03
34197;BME280;36594;45.192;5.722;2023-04-23T03:05:00;98749.16;;;24.51;36.07
34197;BME280;36594;45.192;5.722;2023-04-23T03:07:48;98739.55;;;24.51;36.04
34197;BME280;36594;45.192;5.722;2023-04-23T03:10:37;98734.88;;;24.52;36.02
34197;BME280;36594;45.192;5.722;2023-04-23T03:13:25;98748.61;;;24.52;36.04
34197;BME280;36594;45.192;5.722;2023-04-23T03:16:14;98752.99;;;24.53;36.05
34197;BME280;36594;45.192;5.722;2023-04-23T03:19:03;98748.08;;;24.52;36.02
34197;BME280;36594;45.192;5.722;2023-04-23T03:21:52;98740.38;;;24.52;36.02
34197;BME280;36594;45.192;5.722;2023-04-23T03:24:40;98731.05;;;24.50;36.05
34197;BME280;36594;45.192;5.722;2023-04-23T03:27:28;98721.70;;;24.51;36.06
34197;BME280;36594;45.192;5.722;2023-04-23T03:30:17;98715.38;;;24.51;36.06
34197;BME280;36594;45.192;5.722;2023-04-23T03:33:07;98717.02;;;24.49;36.09
34197;BME280;36594;45.192;5.722;2023-04-23T03:35:55;98712.07;;;24.49;36.09
34197;BME280;36594;45.192;5.722;2023-04-23T03:38:46;98716.20;;;24.51;36.07
34197;BME280;36594;45.192;5.722;2023-04-23T03:41:35;98729.94;;;24.51;36.07
34197;BME280;36594;45.192;5.722;2023-04-23T03:44:24;98731.60;;;24.52;36.05
34197;BME280;36594;45.192;5.722;2023-04-23T03:47:14;98727.17;;;24.49;36.03
34197;BME280;36594;45.192;5.722;2023-04-23T03:50:03;98722.80;;;24.50;36.09
34197;BME280;36594;45.192;5.722;2023-04-23T03:52:51;98729.38;;;24.49;36.11
34197;BME280;36594;45.192;5.722;2023-04-23T03:55:42;98732.68;;;24.51;36.11
34197;BME280;36594;45.192;5.722;2023-04-23T03:58:31;98725.00;;;24.53;36.08
34197;BME280;36594;45.192;5.722;2023-04-23T04:01:20;98719.48;;;24.51;36.10
34197;BME280;36594;45.192;5.722;2023-04-23T04:04:08;98707.95;;;24.49;36.09
34197;BME280;36594;45.192;5.722;2023-04-23T04:06:57;98707.95;;;24.49;36.09
34197;BME280;36594;45.192;5.722;2023-04-23T04:09:49;98707.12;;;24.48;36.09
34197;BME280;36594;45.192;5.722;2023-04-23T04:12:37;98705.20;;;24.49;36.11
34197;BME280;36594;45.192;5.722;2023-04-23T04:15:29;98684.02;;;24.42;36.09
34197;BME280;36594;45.192;5.722;2023-04-23T04:18:19;98676.92;;;24.43;36.11
34197;BME280;36594;45.192;5.722;2023-04-23T04:21:07;98666.18;;;24.42;36.09
34197;BME280;36594;45.192;5.722;2023-04-23T04:23:55;98675.55;;;24.48;36.09
34197;BME280;36594;45.192;5.722;2023-04-23T04:26:44;98684.35;;;24.48;36.09
34197;BME280;36594;45.192;5.722;2023-04-23T04:29:34;98681.03;;;24.48;36.12
34197;BME280;36594;45.192;5.722;2023-04-23T04:32:22;98674.76;;;24.50;36.05
34197;BME280;36594;45.192;5.722;2023-04-23T04:35:10;98673.39;;;24.50;36.08
34197;BME280;36594;45.192;5.722;2023-04-23T04:38:01;98682.41;;;24.48;36.09
34197;BME280;36594;45.192;5.722;2023-04-23T04:40:49;98685.16;;;24.48;36.09
34197;BME280;36594;45.192;5.722;2023-04-23T04:43:40;98679.12;;;24.49;36.04
34197;BME280;36594;45.192;5.722;2023-04-23T04:46:29;98671.16;;;24.47;36.11
34197;BME280;36594;45.192;5.722;2023-04-23T04:49:18;98670.62;;;24.48;36.09
34197;BME280;36594;45.192;5.722;2023-04-23T04:52:07;98669.79;;;24.47;36.05
34197;BME280;36594;45.192;5.722;2023-04-23T04:54:56;98667.30;;;24.48;36.10
34197;BME280;36594;45.192;5.722;2023-04-23T04:57:44;98665.38;;;24.46;36.07
34197;BME280;36594;45.192;5.722;2023-04-23T05:00:33;98659.63;;;24.45;36.18
34197;BME280;36594;45.192;5.722;2023-04-23T05:03:21;98652.45;;;24.42;36.43
34197;BME280;36594;45.192;5.722;2023-04-23T05:06:09;98647.52;;;24.44;36.58
34197;BME280;36594;45.192;5.722;2023-04-23T05:08:58;98651.06;;;24.39;36.56
34197;BME280;36594;45.192;5.722;2023-04-23T05:11:46;98644.20;;;24.39;36.78
34197;BME280;36594;45.192;5.722;2023-04-23T05:14:35;98656.02;;;24.40;37.01
34197;BME280;36594;45.192;5.722;2023-04-23T05:17:24;98659.59;;;24.40;37.21
34197;BME280;36594;45.192;5.722;2023-04-23T05:20:12;98662.34;;;24.40;37.12
34197;BME280;36594;45.192;5.722;2023-04-23T05:23:00;98659.30;;;24.39;37.18
34197;BME280;36594;45.192;5.722;2023-04-23T05:25:49;98666.46;;;24.40;37.17
34197;BME280;36594;45.192;5.722;2023-04-23T05:28:39;98670.56;;;24.38;37.14
34197;BME280;36594;45.192;5.722;2023-04-23T05:31:27;98677.14;;;24.39;37.11
34197;BME280;36594;45.192;5.722;2023-04-23T05:34:16;98681.82;;;24.41;37.10
34197;BME280;36594;45.192;5.722;2023-04-23T05:37:04;98681.28;;;24.42;37.05
34197;BME280;36594;45.192;5.722;2023-04-23T05:39:53;98682.93;;;24.40;37.01
34197;BME280;36594;45.192;5.722;2023-04-23T05:42:42;98682.63;;;24.39;37.06
34197;BME280;36594;45.192;5.722;2023-04-23T05:45:30;98685.92;;;24.39;37.01
34197;BME280;36594;45.192;5.722;2023-04-23T05:48:19;98676.61;;;24.40;36.98
34197;BME280;36594;45.192;5.722;2023-04-23T05:51:07;98661.78;;;24.38;37.01
34197;BME280;36594;45.192;5.722;2023-04-23T05:53:56;98675.52;;;24.38;37.00
34197;BME280;36594;45.192;5.722;2023-04-23T05:56:44;98690.61;;;24.38;37.02
34197;BME280;36594;45.192;5.722;2023-04-23T05:59:33;98675.76;;;24.37;36.98
34197;BME280;36594;45.192;5.722;2023-04-23T06:02:21;98670.56;;;24.38;37.01
34197;BME280;36594;45.192;5.722;2023-04-23T06:05:11;98667.52;;;24.37;36.98
34197;BME280;36594;45.192;5.722;2023-04-23T06:08:00;98662.02;;;24.34;36.94
34197;BME280;36594;45.192;5.722;2023-04-23T06:10:48;98667.26;;;24.36;36.94
34197;BME280;36594;45.192;5.722;2023-04-23T06:13:37;98653.53;;;24.36;36.92
34197;BME280;36594;45.192;5.722;2023-04-23T06:16:27;98658.47;;;24.39;36.88
34197;BME280;36594;45.192;5.722;2023-04-23T06:19:15;98663.98;;;24.41;36.80
34197;BME280;36594;45.192;5.722;2023-04-23T06:22:04;98662.62;;;24.44;36.73
34197;BME280;36594;45.192;5.722;2023-04-23T06:24:53;98671.41;;;24.46;36.68
34197;BME280;36594;45.192;5.722;2023-04-23T06:27:42;98664.83;;;24.44;36.74
34197;BME280;36594;45.192;5.722;2023-04-23T06:30:32;98662.62;;;24.44;36.71
34197;BME280;36594;45.192;5.722;2023-04-23T06:33:21;98664.30;;;24.47;36.74
34197;BME280;36594;45.192;5.722;2023-04-23T06:36:09;98664.84;;;24.47;36.90
34197;BME280;36594;45.192;5.722;2023-04-23T06:38:58;98668.94;;;24.44;37.04
34197;BME280;36594;45.192;5.722;2023-04-23T06:41:46;98671.42;;;24.43;37.05
34197;BME280;36594;45.192;5.722;2023-04-23T06:44:51;98659.87;;;24.44;36.97
34197;BME280;36594;45.192;5.722;2023-04-23T06:47:40;98667.30;;;24.43;36.96
34197;BME280;36594;45.192;5.722;2023-04-23T06:50:29;98676.08;;;24.43;36.92
34197;BME280;36594;45.192;5.722;2023-04-23T06:53:17;98680.22;;;24.45;36.90
34197;BME280;36594;45.192;5.722;2023-04-23T06:56:06;98672.80;;;24.48;36.84
34197;BME280;36594;45.192;5.722;2023-04-23T06:58:54;98674.74;;;24.48;36.81
34197;BME280;36594;45.192;5.722;2023-04-23T07:01:43;98673.08;;;24.47;36.75
34197;BME280;36594;45.192;5.722;2023-04-23T07:04:31;98679.41;;;24.47;36.78
34197;BME280;36594;45.192;5.722;2023-04-23T07:07:19;98676.91;;;24.46;36.81
34197;BME280;36594;45.192;5.722;2023-04-23T07:10:12;98672.24;;;24.46;36.83
34197;BME280;36594;45.192;5.722;2023-04-23T07:13:00;98674.74;;;24.48;36.78
34197;BME280;36594;45.192;5.722;2023-04-23T07:15:49;98679.41;;;24.47;36.82
34197;BME280;36594;45.192;5.722;2023-04-23T07:18:37;98688.20;;;24.49;36.80
34197;BME280;36594;45.192;5.722;2023-04-23T07:21:27;98683.78;;;24.48;36.79
34197;BME280;36594;45.192;5.722;2023-04-23T07:24:15;98681.59;;;24.45;36.88
34197;BME280;36594;45.192;5.722;2023-04-23T07:27:04;98683.52;;;24.47;36.88
34197;BME280;36594;45.192;5.722;2023-04-23T07:29:53;98683.78;;;24.48;36.96
34197;BME280;36594;45.192;5.722;2023-04-23T07:32:42;98676.92;;;24.48;36.92
34197;BME280;36594;45.192;5.722;2023-04-23T07:35:31;98672.24;;;24.46;37.14
34197;BME280;36594;45.192;5.722;2023-04-23T07:38:19;98671.16;;;24.47;37.19
34197;BME280;36594;45.192;5.722;2023-04-23T07:41:07;98663.47;;;24.47;37.17
34197;BME280;36594;45.192;5.722;2023-04-23T07:43:56;98665.39;;;24.49;37.09
34197;BME280;36594;45.192;5.722;2023-04-23T07:46:44;98664.86;;;24.49;37.08
34197;BME280;36594;45.192;5.722;2023-04-23T07:49:33;98662.38;;;24.45;37.07
34197;BME280;36594;45.192;5.722;2023-04-23T07:52:21;98664.01;;;24.46;37.03
34197;BME280;36594;45.192;5.722;2023-04-23T07:55:10;98652.77;;;24.45;37.07
34197;BME280;36594;45.192;5.722;2023-04-23T07:57:58;98645.91;;;24.48;37.01
34197;BME280;36594;45.192;5.722;2023-04-23T08:00:46;98644.27;;;24.49;36.95
34197;BME280;36594;45.192;5.722;2023-04-23T08:03:34;98636.84;;;24.47;36.91
34197;BME280;36594;45.192;5.722;2023-04-23T08:06:22;98627.78;;;24.47;36.92
34197;BME280;36594;45.192;5.722;2023-04-23T08:09:11;98630.54;;;24.49;36.89
34197;BME280;36594;45.192;5.722;2023-04-23T08:11:59;98629.16;;;24.49;36.87
34197;BME280;36594;45.192;5.722;2023-04-23T08:14:48;98631.91;;;24.49;36.83
34197;BME280;36594;45.192;5.722;2023-04-23T08:17:38;98627.80;;;24.49;36.80
34197;BME280;36594;45.192;5.722;2023-04-23T08:20:27;98627.52;;;24.51;36.79
34197;BME280;36594;45.192;5.722;2023-04-23T08:23:16;98629.45;;;24.50;36.80
34197;BME280;36594;45.192;5.722;2023-04-23T08:26:04;98622.85;;;24.51;36.78
34197;BME280;36594;45.192;5.722;2023-04-23T08:28:53;98618.20;;;24.52;36.75
34197;BME280;36594;45.192;5.722;2023-04-23T08:31:42;98622.59;;;24.55;36.67
34197;BME280;36594;45.192;5.722;2023-04-23T08:34:31;98620.95;;;24.54;36.68
34197;BME280;36594;45.192;5.722;2023-04-23T08:37:19;98619.29;;;24.53;36.67
34197;BME280;36594;45.192;5.722;2023-04-23T08:40:09;98620.95;;;24.54;36.66
34197;BME280;36594;45.192;5.722;2023-04-23T08:43:02;98628.37;;;24.56;36.65
34197;BME280;36594;45.192;5.722;2023-04-23T08:45:52;98626.70;;;24.55;36.63
34197;BME280;36594;45.192;5.722;2023-04-23T08:48:43;98614.35;;;24.55;36.60
34197;BME280;36594;45.192;5.722;2023-04-23T08:51:33;98613.81;;;24.56;36.62
34197;BME280;36594;45.192;5.722;2023-04-23T08:54:27;98616.30;;;24.55;36.59
34197;BME280;36594;45.192;5.722;2023-04-23T08:57:17;98607.78;;;24.56;36.56
34197;BME280;36594;45.192;5.722;2023-04-23T09:00:07;98606.11;;;24.55;36.58
34197;BME280;36594;45.192;5.722;2023-04-23T09:02:57;98603.66;;;24.56;36.55
34197;BME280;36594;45.192;5.722;2023-04-23T09:05:47;98594.05;;;24.56;36.54
34197;BME280;36594;45.192;5.722;2023-04-23T09:08:37;98589.11;;;24.58;36.51
34197;BME280;36594;45.192;5.722;2023-04-23T09:11:26;98591.31;;;24.59;36.48
34197;BME280;36594;45.192;5.722;2023-04-23T09:14:17;98582.54;;;24.59;36.46
34197;BME280;36594;45.192;5.722;2023-04-23T09:17:06;98581.17;;;24.62;36.47
34197;BME280;36594;45.192;5.722;2023-04-23T09:19:54;98579.23;;;24.62;36.44
34197;BME280;36594;45.192;5.722;2023-04-23T09:22:50;98577.59;;;24.61;36.38
34197;BME280;36594;45.192;5.722;2023-04-23T09:25:39;98571.27;;;24.61;36.36
34197;BME280;36594;45.192;5.722;2023-04-23T09:28:34;98564.69;;;24.59;36.37
34197;BME280;36594;45.192;5.722;2023-04-23T09:31:23;98571.56;;;24.62;36.35
34197;BME280;36594;45.192;5.722;2023-04-23T09:34:19;98569.36;;;24.61;36.31
34197;BME280;36594;45.192;5.722;2023-04-23T09:37:05;98558.92;;;24.61;36.32
34197;BME280;36594;45.192;5.722;2023-04-23T09:40:03;98554.50;;;24.60;36.39
34197;BME280;36594;45.192;5.722;2023-04-23T09:42:52;98554.50;;;24.60;36.37
34197;BME280;36594;45.192;5.722;2023-04-23T09:45:48;98549.84;;;24.60;36.33
34197;BME280;36594;45.192;5.722;2023-04-23T09:48:42;98545.73;;;24.63;36.27
34197;BME280;36594;45.192;5.722;2023-04-23T09:51:31;98539.42;;;24.65;36.26
34197;BME280;36594;45.192;5.722;2023-04-23T09:54:21;98535.30;;;24.62;36.27
34197;BME280;36594;45.192;5.722;2023-04-23T09:57:11;98534.47;;;24.64;36.23
34197;BME280;36594;45.192;5.722;2023-04-23T10:00:17;98535.05;;;24.66;36.18
34197;BME280;36594;45.192;5.722;2023-04-23T10:03:02;98528.18;;;24.64;36.19
34197;BME280;36594;45.192;5.722;2023-04-23T10:05:53;98522.11;;;24.64;36.20
34197;BME280;36594;45.192;5.722;2023-04-23T10:08:42;98523.78;;;24.65;36.12
34197;BME280;36594;45.192;5.722;2023-04-23T10:11:31;98512.50;;;24.64;36.16
34197;BME280;36594;45.192;5.722;2023-04-23T10:14:23;98508.67;;;24.65;36.10
34197;BME280;36594;45.192;5.722;2023-04-23T10:17:13;98500.72;;;24.66;36.10
34197;BME280;36594;45.192;5.722;2023-04-23T10:20:02;98502.10;;;24.69;36.04
34197;BME280;36594;45.192;5.722;2023-04-23T10:22:52;98500.98;;;24.67;36.01
34197;BME280;36594;45.192;5.722;2023-04-23T10:25:42;98499.61;;;24.67;36.06
34197;BME280;36594;45.192;5.722;2023-04-23T10:28:33;98500.44;;;24.68;36.02
34197;BME280;36594;45.192;5.722;2023-04-23T10:31:23;98508.97;;;24.69;35.99
34197;BME280;36594;45.192;5.722;2023-04-23T10:34:11;98492.75;;;24.67;35.96
34197;BME280;36594;45.192;5.722;2023-04-23T10:37:01;98491.66;;;24.68;35.95
34197;BME280;36594;45.192;5.722;2023-04-23T10:39:55;98492.20;;;24.68;35.96
34197;BME280;36594;45.192;5.722;2023-04-23T10:42:45;98493.03;;;24.68;35.94
34197;BME280;36594;45.192;5.722;2023-04-23T10:45:34;98482.05;;;24.66;35.96
34197;BME280;36594;45.192;5.722;2023-04-23T10:48:22;98475.44;;;24.67;35.92
34197;BME280;36594;45.192;5.722;2023-04-23T10:51:10;98481.22;;;24.68;35.92
34197;BME280;36594;45.192;5.722;2023-04-23T10:53:59;98478.77;;;24.69;35.89
34197;BME280;36594;45.192;5.722;2023-04-23T10:56:49;98468.30;;;24.61;35.88
34197;BME280;36594;45.192;5.722;2023-04-23T10:59:41;98473.27;;;24.69;35.86
34197;BME280;36594;45.192;5.722;2023-04-23T11:02:41;98464.45;;;24.69;35.84
34197;BME280;36594;45.192;5.722;2023-04-23T11:05:22;98471.32;;;24.69;35.81
34197;BME280;36594;45.192;5.722;2023-04-23T11:08:12;98469.70;;;24.71;35.83
34197;BME280;36594;45.192;5.722;2023-04-23T11:11:05;98474.35;;;24.68;35.97
34197;BME280;36594;45.192;5.722;2023-04-23T11:13:52;98452.09;;;24.67;35.90
34197;BME280;36594;45.192;5.722;2023-04-23T11:16:40;98448.27;;;24.70;35.83
34197;BME280;36594;45.192;5.722;2023-04-23T11:19:29;98453.47;;;24.69;35.92
34197;BME280;36594;45.192;5.722;2023-04-23T11:22:17;98449.64;;;24.68;35.96
34197;BME280;36594;45.192;5.722;2023-04-23T11:25:11;98451.30;;;24.69;35.99
34197;BME280;36594;45.192;5.722;2023-04-23T11:28:00;98442.48;;;24.69;36.04
34197;BME280;36594;45.192;5.722;2023-04-23T11:30:50;98438.91;;;24.71;36.06
34197;BME280;36594;45.192;5.722;2023-04-23T11:33:40;98435.91;;;24.68;36.23
34197;BME280;36594;45.192;5.722;2023-04-23T11:36:28;98437.28;;;24.70;36.20
34197;BME280;36594;45.192;5.722;2023-04-23T11:39:17;98435.62;;;24.72;36.21
34197;BME280;36594;45.192;5.722;2023-04-23T11:42:13;98437.00;;;24.72;36.21
34197;BME280;36594;45.192;5.722;2023-04-23T11:45:01;98427.67;;;24.73;36.22
34197;BME280;36594;45.192;5.722;2023-04-23T11:47:51;98429.88;;;24.73;36.26
34197;BME280;36594;45.192;5.722;2023-04-23T11:50:42;98432.34;;;24.75;36.25
34197;BME280;36594;45.192;5.722;2023-04-23T11:53:30;98436.17;;;24.74;36.28
34197;BME280;36594;45.192;5.722;2023-04-23T11:56:18;98433.17;;;24.76;36.36
34197;BME280;36594;45.192;5.722;2023-04-23T11:59:08;98423.84;;;24.77;36.27
34197;BME280;36594;45.192;5.722;2023-04-23T12:01:58;98432.34;;;24.75;36.31
34197;BME280;36594;45.192;5.722;2023-04-23T12:04:47;98425.22;;;24.77;36.35
34197;BME280;36594;45.192;5.722;2023-04-23T12:07:35;98423.84;;;24.77;36.37
34197;BME280;36594;45.192;5.722;2023-04-23T12:10:24;98416.69;;;24.76;36.38
34197;BME280;36594;45.192;5.722;2023-04-23T12:13:14;98408.73;;;24.77;36.37
34197;BME280;36594;45.192;5.722;2023-04-23T12:16:04;98406.83;;;24.77;36.38
34197;BME280;36594;45.192;5.722;2023-04-23T12:18:53;98403.53;;;24.78;36.44
34197;BME280;36594;45.192;5.722;2023-04-23T12:21:52;98385.39;;;24.77;36.42
34197;BME280;36594;45.192;5.722;2023-04-23T12:24:47;98391.43;;;24.79;36.43
34197;BME280;36594;45.192;5.722;2023-04-23T12:27:44;98394.75;;;24.78;36.50
34197;BME280;36594;45.192;5.722;2023-04-23T12:30:31;98393.34;;;24.76;36.53
34197;BME280;36594;45.192;5.722;2023-04-23T12:33:20;98392.80;;;24.79;36.66
34197;BME280;36594;45.192;5.722;2023-04-23T12:36:10;98392.80;;;24.79;36.60
34197;BME280;36594;45.192;5.722;2023-04-23T12:39:30;98390.06;;;24.79;36.54
34197;BME280;36594;45.192;5.722;2023-04-23T12:42:19;98380.73;;;24.80;36.57
34197;BME280;36594;45.192;5.722;2023-04-23T12:45:09;98367.25;;;24.76;36.69
34197;BME280;36594;45.192;5.722;2023-04-23T12:47:57;98361.51;;;24.77;36.74
34197;BME280;36594;45.192;5.722;2023-04-23T12:50:46;98365.91;;;24.78;36.69
34197;BME280;36594;45.192;5.722;2023-04-23T12:53:34;98365.34;;;24.79;36.71
34197;BME280;36594;45.192;5.722;2023-04-23T12:56:22;98361.51;;;24.80;36.67
34197;BME280;36594;45.192;5.722;2023-04-23T12:59:10;98363.42;;;24.79;36.68
34197;BME280;36594;45.192;5.722;2023-04-23T13:01:59;98359.30;;;24.79;36.72
34197;BME280;36594;45.192;5.722;2023-04-23T13:04:49;98349.98;;;24.80;36.68
34197;BME280;36594;45.192;5.722;2023-04-23T13:07:38;98349.15;;;24.82;36.67
34197;BME280;36594;45.192;5.722;2023-04-23T13:10:26;98344.48;;;24.80;36.72
34197;BME280;36594;45.192;5.722;2023-04-23T13:13:16;98337.08;;;24.78;36.86
34197;BME280;36594;45.192;5.722;2023-04-23T13:16:04;98337.88;;;24.79;36.93
34197;BME280;36594;45.192;5.722;2023-04-23T13:18:53;98331.30;;;24.80;36.92
34197;BME280;36594;45.192;5.722;2023-04-23T13:21:41;98341.45;;;24.79;36.86
34197;BME280;36594;45.192;5.722;2023-04-23T13:24:30;98340.91;;;24.80;36.83
34197;BME280;36594;45.192;5.722;2023-04-23T13:27:18;98342.28;;;24.80;36.86
34197;BME280;36594;45.192;5.722;2023-04-23T13:30:08;98346.41;;;24.80;36.94
34197;BME280;36594;45.192;5.722;2023-04-23T13:32:57;98350.52;;;24.80;36.97
34197;BME280;36594;45.192;5.722;2023-04-23T13:35:45;98346.11;;;24.79;36.95
34197;BME280;36594;45.192;5.722;2023-04-23T13:38:34;98358.47;;;24.79;36.98
34197;BME280;36594;45.192;5.722;2023-04-23T13:41:23;98358.22;;;24.80;36.96
34197;BME280;36594;45.192;5.722;2023-04-23T13:44:11;98332.13;;;24.83;36.88
34197;BME280;36594;45.192;5.722;2023-04-23T13:47:00;98343.94;;;24.81;36.85
34197;BME280;36594;45.192;5.722;2023-04-23T13:49:48;98349.15;;;24.80;36.86
34197;BME280;36594;45.192;5.722;2023-04-23T13:52:37;98335.95;;;24.82;36.83
34197;BME280;36594;45.192;5.722;2023-04-23T13:55:26;98346.94;;;24.82;36.88
34197;BME280;36594;45.192;5.722;2023-04-23T13:58:14;98335.12;;;24.84;36.80
34197;BME280;36594;45.192;5.722;2023-04-23T14:01:04;98325.52;;;24.84;36.77
34197;BME280;36594;45.192;5.722;2023-04-23T14:03:52;98340.91;;;24.85;36.77
34197;BME280;36594;45.192;5.722;2023-04-23T14:06:41;98342.53;;;24.86;36.76
34197;BME280;36594;45.192;5.722;2023-04-23T14:09:30;98344.48;;;24.88;36.67
34197;BME280;36594;45.192;5.722;2023-04-23T14:12:19;98343.11;;;24.88;36.68
34197;BME280;36594;45.192;5.722;2023-04-23T14:15:09;98344.73;;;24.89;36.72
34197;BME280;36594;45.192;5.722;2023-04-23T14:17:57;98332.66;;;24.90;36.65
34197;BME280;36594;45.192;5.722;2023-04-23T14:20:45;98315.35;;;24.89;36.62
34197;BME280;36594;45.192;5.722;2023-04-23T14:23:48;98310.69;;;24.90;36.59
34197;BME280;36594;45.192;5.722;2023-04-23T14:26:37;98309.56;;;24.91;36.59
34197;BME280;36594;45.192;5.722;2023-04-23T14:32:22;98299.95;;;24.88;36.61
34197;BME280;36594;45.192;5.722;2023-04-23T14:35:12;98302.16;;;24.89;36.61
34197;BME280;36594;45.192;5.722;2023-04-23T14:38:00;98301.33;;;24.91;36.60
34197;BME280;36594;45.192;5.722;2023-04-23T14:40:49;98299.70;;;24.90;36.60
34197;BME280;36594;45.192;5.722;2023-04-23T14:43:37;98296.38;;;24.93;36.58
34197;BME280;36594;45.192;5.722;2023-04-23T14:46:26;98296.95;;;24.90;36.59
34197;BME280;36594;45.192;5.722;2023-04-23T14:49:15;98301.33;;;24.88;36.61
34197;BME280;36594;45.192;5.722;2023-04-23T14:52:04;98302.70;;;24.88;36.60
34197;BME280;36594;45.192;5.722;2023-04-23T14:54:52;98307.11;;;24.89;36.62
34197;BME280;36594;45.192;5.722;2023-04-23T14:57:42;98309.57;;;24.88;36.62
34197;BME280;36594;45.192;5.722;2023-04-23T15:00:30;98309.61;;;24.83;36.80